sensor_id;sensor_type;location;lat;lon;timestamp;P1;durP1;ratioP1;P2;durP2;ratioP2
8042;SDS011;4064;48.132;11.366;2024-02-16T00:00:48;9.03;;;5.33;;
8042;SDS011;4064;48.132;11.366;2024-02-16T00:03:13;5.00;;;4.50;;
8042;SDS011;4064;48.132;11.366;2024-02-16T00:05:39;6.87;;;5.20;;
8042;SDS011;4064;48.132;11.366;2024-02-16T00:08:06;10.35;;;4.85;;
8042;SDS011;4064;48.132;11.366;2024-02-16T00:10:31;7.20;;;5.10;;
8042;SDS011;4064;48.132;11.366;2024-02-16T00:12:57;8.67;;;5.23;;
8042;SDS011;4064;48.132;11.366;2024-02-16T00:15:23;5.17;;;4.40;;
8042;SDS011;4064;48.132;11.366;2024-02-16T00:17:49;7.90;;;5.00;;
8042;SDS011;4064;48.132;11.366;2024-02-16T00:20:14;5.37;;;4.10;;
8042;SDS011;4064;48.132;11.366;2024-02-16T00:22:40;8.13;;;5.30;;
8042;SDS011;4064;48.132;11.366;2024-02-16T00:25:06;5.10;;;4.03;;
8042;SDS011;4064;48.132;11.366;2024-02-16T00:27:32;6.35;;;3.90;;
8042;SDS011;4064;48.132;11.366;2024-02-16T00:29:58;6.23;;;4.50;;
8042;SDS011;4064;48.132;11.366;2024-02-16T00:32:24;4.78;;;4.00;;
8042;SDS011;4064;48.132;11.366;2024-02-16T00:34:54;5.53;;;4.22;;
8042;SDS011;4064;48.132;11.366;2024-02-16T00:37:20;6.10;;;4.23;;
8042;SDS011;4064;48.132;11.366;2024-02-16T00:39:46;5.17;;;4.60;;
8042;SDS011;4064;48.132;11.366;2024-02-16T00:42:11;7.03;;;4.00;;
8042;SDS011;4064;48.132;11.366;2024-02-16T00:44:37;5.40;;;4.80;;
8042;SDS011;4064;48.132;11.366;2024-02-16T00:47:04;4.93;;;4.35;;
8042;SDS011;4064;48.132;11.366;2024-02-16T00:49:34;7.35;;;4.15;;
8042;SDS011;4064;48.132;11.366;2024-02-16T00:52:00;5.37;;;4.50;;
8042;SDS011;4064;48.132;11.366;2024-02-16T00:54:27;5.38;;;4.22;;
8042;SDS011;4064;48.132;11.366;2024-02-16T00:56:53;5.27;;;4.77;;
8042;SDS011;4064;48.132;11.366;2024-02-16T00:59:19;6.47;;;4.47;;
8042;SDS011;4064;48.132;11.366;2024-02-16T01:01:46;5.18;;;4.75;;
8042;SDS011;4064;48.132;11.366;2024-02-16T01:04:12;5.37;;;3.90;;
8042;SDS011;4064;48.132;11.366;2024-02-16T01:06:37;4.83;;;4.33;;
8042;SDS011;4064;48.132;11.366;2024-02-16T01:09:03;3.80;;;3.50;;
8042;SDS011;4064;48.132;11.366;2024-02-16T01:11:29;6.00;;;4.40;;
8042;SDS011;4064;48.132;11.366;2024-02-16T01:13:55;4.13;;;3.63;;
8042;SDS011;4064;48.132;11.366;2024-02-16T01:16:20;6.90;;;4.03;;
8042;SDS011;4064;48.132;11.366;2024-02-16T01:18:46;5.10;;;3.30;;
8042;SDS011;4064;48.132;11.366;2024-02-16T01:21:12;5.53;;;3.50;;
8042;SDS011;4064;48.132;11.366;2024-02-16T01:23:37;5.17;;;4.50;;
8042;SDS011;4064;48.132;11.366;2024-02-16T01:26:03;5.60;;;4.67;;
8042;SDS011;4064;48.132;11.366;2024-02-16T01:28:29;6.27;;;4.33;;
8042;SDS011;4064;48.132;11.366;2024-02-16T01:30:54;6.13;;;4.10;;
8042;SDS011;4064;48.132;11.366;2024-02-16T01:33:21;5.05;;;4.20;;
8042;SDS011;4064;48.132;11.366;2024-02-16T01:35:47;6.10;;;4.40;;
8042;SDS011;4064;48.132;11.366;2024-02-16T01:38:13;4.33;;;3.93;;
8042;SDS011;4064;48.132;11.366;2024-02-16T01:40:39;4.67;;;3.93;;
8042;SDS011;4064;48.132;11.366;2024-02-16T01:43:05;3.85;;;3.55;;
8042;SDS011;4064;48.132;11.366;2024-02-16T01:45:31;6.43;;;4.47;;
8042;SDS011;4064;48.132;11.366;2024-02-16T01:47:56;4.00;;;3.60;;
8042;SDS011;4064;48.132;11.366;2024-02-16T01:50:22;4.43;;;3.65;;
8042;SDS011;4064;48.132;11.366;2024-02-16T01:52:49;6.75;;;3.83;;
8042;SDS011;4064;48.132;11.366;2024-02-16T01:55:15;4.53;;;3.83;;
8042;SDS011;4064;48.132;11.366;2024-02-16T01:57:46;4.50;;;3.13;;
8042;SDS011;4064;48.132;11.366;2024-02-16T02:00:13;3.90;;;3.22;;
8042;SDS011;4064;48.132;11.366;2024-02-16T02:02:40;4.53;;;3.85;;
8042;SDS011;4064;48.132;11.366;2024-02-16T02:05:08;4.00;;;3.20;;
8042;SDS011;4064;48.132;11.366;2024-02-16T02:07:34;5.40;;;4.47;;
8042;SDS011;4064;48.132;11.366;2024-02-16T02:10:00;4.50;;;3.47;;
8042;SDS011;4064;48.132;11.366;2024-02-16T02:12:26;8.10;;;4.73;;
8042;SDS011;4064;48.132;11.366;2024-02-16T02:14:51;8.70;;;7.03;;
8042;SDS011;4064;48.132;11.366;2024-02-16T02:17:18;12.13;;;8.00;;
8042;SDS011;4064;48.132;11.366;2024-02-16T02:19:46;9.68;;;7.15;;
8042;SDS011;4064;48.132;11.366;2024-02-16T02:22:15;9.77;;;5.75;;
8042;SDS011;4064;48.132;11.366;2024-02-16T02:24:44;7.68;;;6.00;;
8042;SDS011;4064;48.132;11.366;2024-02-16T02:27:11;8.07;;;6.63;;
8042;SDS011;4064;48.132;11.366;2024-02-16T02:29:38;9.27;;;7.50;;
8042;SDS011;4064;48.132;11.366;2024-02-16T02:32:04;12.27;;;7.50;;
8042;SDS011;4064;48.132;11.366;2024-02-16T02:34:30;8.45;;;6.43;;
8042;SDS011;4064;48.132;11.366;2024-02-16T02:36:56;7.93;;;5.67;;
8042;SDS011;4064;48.132;11.366;2024-02-16T02:39:22;6.50;;;5.75;;
8042;SDS011;4064;48.132;11.366;2024-02-16T02:41:48;5.70;;;4.67;;
8042;SDS011;4064;48.132;11.366;2024-02-16T02:44:14;6.80;;;5.30;;
8042;SDS011;4064;48.132;11.366;2024-02-16T02:46:39;10.67;;;4.87;;
8042;SDS011;4064;48.132;11.366;2024-02-16T02:49:06;7.65;;;5.63;;
8042;SDS011;4064;48.132;11.366;2024-02-16T02:51:32;7.27;;;5.63;;
8042;SDS011;4064;48.132;11.366;2024-02-16T02:53:58;8.88;;;6.68;;
8042;SDS011;4064;48.132;11.366;2024-02-16T02:56:23;8.17;;;7.13;;
8042;SDS011;4064;48.132;11.366;2024-02-16T02:58:49;10.87;;;7.80;;
8042;SDS011;4064;48.132;11.366;2024-02-16T03:01:15;8.27;;;5.60;;
8042;SDS011;4064;48.132;11.366;2024-02-16T03:03:40;8.00;;;5.00;;
8042;SDS011;4064;48.132;11.366;2024-02-16T03:06:07;5.47;;;4.70;;
8042;SDS011;4064;48.132;11.366;2024-02-16T03:08:34;9.63;;;4.70;;
8042;SDS011;4064;48.132;11.366;2024-02-16T03:11:00;5.38;;;4.10;;
8042;SDS011;4064;48.132;11.366;2024-02-16T03:13:26;4.97;;;4.18;;
8042;SDS011;4064;48.132;11.366;2024-02-16T03:15:52;4.30;;;3.95;;
8042;SDS011;4064;48.132;11.366;2024-02-16T03:18:18;5.10;;;4.22;;
8042;SDS011;4064;48.132;11.366;2024-02-16T03:20:44;3.45;;;3.13;;
8042;SDS011;4064;48.132;11.366;2024-02-16T03:23:13;4.68;;;4.20;;
8042;SDS011;4064;48.132;11.366;2024-02-16T03:25:40;8.65;;;4.28;;
8042;SDS011;4064;48.132;11.366;2024-02-16T03:28:08;4.67;;;4.10;;
8042;SDS011;4064;48.132;11.366;2024-02-16T03:30:37;6.95;;;5.30;;
8042;SDS011;4064;48.132;11.366;2024-02-16T03:33:04;4.32;;;3.72;;
8042;SDS011;4064;48.132;11.366;2024-02-16T03:35:30;4.53;;;4.03;;
8042;SDS011;4064;48.132;11.366;2024-02-16T03:37:55;5.13;;;4.73;;
8042;SDS011;4064;48.132;11.366;2024-02-16T03:40:22;4.10;;;3.70;;
8042;SDS011;4064;48.132;11.366;2024-02-16T03:42:49;5.93;;;4.25;;
8042;SDS011;4064;48.132;11.366;2024-02-16T03:45:15;5.03;;;4.40;;
8042;SDS011;4064;48.132;11.366;2024-02-16T03:47:41;7.10;;;4.77;;
8042;SDS011;4064;48.132;11.366;2024-02-16T03:50:07;4.70;;;4.20;;
8042;SDS011;4064;48.132;11.366;2024-02-16T03:52:33;5.93;;;4.57;;
8042;SDS011;4064;48.132;11.366;2024-02-16T03:54:59;5.00;;;4.40;;
8042;SDS011;4064;48.132;11.366;2024-02-16T03:57:25;8.30;;;4.90;;
8042;SDS011;4064;48.132;11.366;2024-02-16T03:59:51;5.70;;;5.30;;
8042;SDS011;4064;48.132;11.366;2024-02-16T04:02:17;5.17;;;4.50;;
8042;SDS011;4064;48.132;11.366;2024-02-16T04:04:43;6.85;;;6.15;;
8042;SDS011;4064;48.132;11.366;2024-02-16T04:07:09;7.35;;;4.95;;
8042;SDS011;4064;48.132;11.366;2024-02-16T04:09:35;9.17;;;4.97;;
8042;SDS011;4064;48.132;11.366;2024-02-16T04:12:01;6.30;;;5.40;;
8042;SDS011;4064;48.132;11.366;2024-02-16T04:14:28;5.35;;;4.85;;
8042;SDS011;4064;48.132;11.366;2024-02-16T04:16:58;6.00;;;5.40;;
8042;SDS011;4064;48.132;11.366;2024-02-16T04:19:27;8.05;;;5.55;;
8042;SDS011;4064;48.132;11.366;2024-02-16T04:21:53;5.57;;;4.75;;
8042;SDS011;4064;48.132;11.366;2024-02-16T04:24:20;4.20;;;3.80;;
8042;SDS011;4064;48.132;11.366;2024-02-16T04:26:46;4.90;;;4.17;;
8042;SDS011;4064;48.132;11.366;2024-02-16T04:29:14;9.57;;;5.13;;
8042;SDS011;4064;48.132;11.366;2024-02-16T04:31:41;4.82;;;4.28;;
8042;SDS011;4064;48.132;11.366;2024-02-16T04:34:10;5.70;;;4.30;;
8042;SDS011;4064;48.132;11.366;2024-02-16T04:36:36;4.80;;;4.40;;
8042;SDS011;4064;48.132;11.366;2024-02-16T04:39:01;5.47;;;4.60;;
8042;SDS011;4064;48.132;11.366;2024-02-16T04:41:27;6.43;;;4.80;;
8042;SDS011;4064;48.132;11.366;2024-02-16T04:43:53;5.17;;;4.60;;
8042;SDS011;4064;48.132;11.366;2024-02-16T04:46:18;4.60;;;4.20;;
8042;SDS011;4064;48.132;11.366;2024-02-16T04:48:44;5.80;;;3.83;;
8042;SDS011;4064;48.132;11.366;2024-02-16T04:51:11;9.07;;;4.17;;
8042;SDS011;4064;48.132;11.366;2024-02-16T04:53:37;4.53;;;4.13;;
8042;SDS011;4064;48.132;11.366;2024-02-16T04:56:03;4.60;;;3.67;;
8042;SDS011;4064;48.132;11.366;2024-02-16T04:58:30;4.10;;;3.70;;
8042;SDS011;4064;48.132;11.366;2024-02-16T05:00:56;5.68;;;4.43;;
8042;SDS011;4064;48.132;11.366;2024-02-16T05:03:22;4.83;;;4.30;;
8042;SDS011;4064;48.132;11.366;2024-02-16T05:05:47;7.43;;;3.90;;
8042;SDS011;4064;48.132;11.366;2024-02-16T05:08:13;4.80;;;4.00;;
8042;SDS011;4064;48.132;11.366;2024-02-16T05:10:39;4.37;;;3.90;;
8042;SDS011;4064;48.132;11.366;2024-02-16T05:13:05;3.87;;;3.33;;
8042;SDS011;4064;48.132;11.366;2024-02-16T05:15:30;6.47;;;3.60;;
8042;SDS011;4064;48.132;11.366;2024-02-16T05:17:56;4.60;;;3.83;;
8042;SDS011;4064;48.132;11.366;2024-02-16T05:20:22;5.27;;;4.37;;
8042;SDS011;4064;48.132;11.366;2024-02-16T05:22:48;6.47;;;4.63;;
8042;SDS011;4064;48.132;11.366;2024-02-16T05:25:17;5.10;;;4.60;;
8042;SDS011;4064;48.132;11.366;2024-02-16T05:27:44;4.10;;;3.67;;
8042;SDS011;4064;48.132;11.366;2024-02-16T05:30:10;5.30;;;4.10;;
8042;SDS011;4064;48.132;11.366;2024-02-16T05:32:39;4.57;;;4.00;;
8042;SDS011;4064;48.132;11.366;2024-02-16T05:35:05;4.00;;;3.70;;
8042;SDS011;4064;48.132;11.366;2024-02-16T05:37:43;4.33;;;3.93;;
8042;SDS011;4064;48.132;11.366;2024-02-16T05:40:10;5.37;;;3.87;;
8042;SDS011;4064;48.132;11.366;2024-02-16T05:42:58;4.13;;;3.83;;
8042;SDS011;4064;48.132;11.366;2024-02-16T05:45:24;4.25;;;3.40;;
8042;SDS011;4064;48.132;11.366;2024-02-16T05:47:51;4.05;;;3.60;;
8042;SDS011;4064;48.132;11.366;2024-02-16T05:50:17;6.00;;;3.70;;
8042;SDS011;4064;48.132;11.366;2024-02-16T05:52:45;3.70;;;3.23;;
8042;SDS011;4064;48.132;11.366;2024-02-16T05:55:11;3.37;;;3.07;;
8042;SDS011;4064;48.132;11.366;2024-02-16T05:57:38;4.13;;;3.20;;
8042;SDS011;4064;48.132;11.366;2024-02-16T06:00:04;3.77;;;3.40;;
8042;SDS011;4064;48.132;11.366;2024-02-16T06:02:32;7.00;;;2.80;;
8042;SDS011;4064;48.132;11.366;2024-02-16T06:04:58;5.50;;;3.28;;
8042;SDS011;4064;48.132;11.366;2024-02-16T06:07:24;3.70;;;2.90;;
8042;SDS011;4064;48.132;11.366;2024-02-16T06:09:50;2.80;;;2.57;;
8042;SDS011;4064;48.132;11.366;2024-02-16T06:12:16;4.23;;;2.80;;
8042;SDS011;4064;48.132;11.366;2024-02-16T06:14:42;2.83;;;2.47;;
8042;SDS011;4064;48.132;11.366;2024-02-16T06:17:08;4.40;;;3.00;;
8042;SDS011;4064;48.132;11.366;2024-02-16T06:19:37;2.80;;;2.60;;
8042;SDS011;4064;48.132;11.366;2024-02-16T06:22:03;4.05;;;2.85;;
8042;SDS011;4064;48.132;11.366;2024-02-16T06:24:29;5.00;;;4.20;;
8042;SDS011;4064;48.132;11.366;2024-02-16T06:26:54;3.57;;;3.03;;
8042;SDS011;4064;48.132;11.366;2024-02-16T06:29:20;5.73;;;3.90;;
8042;SDS011;4064;48.132;11.366;2024-02-16T06:31:46;7.03;;;3.70;;
8042;SDS011;4064;48.132;11.366;2024-02-16T06:34:15;5.53;;;2.80;;
8042;SDS011;4064;48.132;11.366;2024-02-16T06:36:41;4.40;;;2.97;;
8042;SDS011;4064;48.132;11.366;2024-02-16T06:39:07;4.03;;;3.47;;
8042;SDS011;4064;48.132;11.366;2024-02-16T06:41:35;3.97;;;3.60;;
8042;SDS011;4064;48.132;11.366;2024-02-16T06:44:01;6.73;;;3.50;;
8042;SDS011;4064;48.132;11.366;2024-02-16T06:46:26;6.40;;;4.00;;
8042;SDS011;4064;48.132;11.366;2024-02-16T06:48:54;4.47;;;3.07;;
8042;SDS011;4064;48.132;11.366;2024-02-16T06:51:22;4.27;;;3.27;;
8042;SDS011;4064;48.132;11.366;2024-02-16T06:53:48;3.40;;;2.90;;
8042;SDS011;4064;48.132;11.366;2024-02-16T06:56:14;5.83;;;4.60;;
8042;SDS011;4064;48.132;11.366;2024-02-16T06:58:40;7.60;;;3.83;;
8042;SDS011;4064;48.132;11.366;2024-02-16T07:01:06;6.40;;;3.50;;
8042;SDS011;4064;48.132;11.366;2024-02-16T07:03:32;4.53;;;2.80;;
8042;SDS011;4064;48.132;11.366;2024-02-16T07:05:58;3.87;;;2.83;;
8042;SDS011;4064;48.132;11.366;2024-02-16T07:08:24;3.53;;;3.00;;
8042;SDS011;4064;48.132;11.366;2024-02-16T07:10:51;4.73;;;3.60;;
8042;SDS011;4064;48.132;11.366;2024-02-16T07:13:17;3.30;;;2.80;;
8042;SDS011;4064;48.132;11.366;2024-02-16T07:15:43;3.23;;;2.63;;
8042;SDS011;4064;48.132;11.366;2024-02-16T07:18:09;11.70;;;3.37;;
8042;SDS011;4064;48.132;11.366;2024-02-16T07:20:35;8.43;;;3.90;;
8042;SDS011;4064;48.132;11.366;2024-02-16T07:23:01;3.47;;;2.80;;
8042;SDS011;4064;48.132;11.366;2024-02-16T07:25:27;3.17;;;2.67;;
8042;SDS011;4064;48.132;11.366;2024-02-16T07:27:53;7.43;;;2.83;;
8042;SDS011;4064;48.132;11.366;2024-02-16T07:30:19;4.03;;;3.57;;
8042;SDS011;4064;48.132;11.366;2024-02-16T07:32:51;5.27;;;3.67;;
8042;SDS011;4064;48.132;11.366;2024-02-16T07:35:17;5.00;;;3.17;;
8042;SDS011;4064;48.132;11.366;2024-02-16T07:37:44;5.13;;;2.67;;
8042;SDS011;4064;48.132;11.366;2024-02-16T07:40:10;4.67;;;2.80;;
8042;SDS011;4064;48.132;11.366;2024-02-16T07:42:40;3.50;;;2.77;;
8042;SDS011;4064;48.132;11.366;2024-02-16T07:45:07;2.67;;;2.43;;
8042;SDS011;4064;48.132;11.366;2024-02-16T07:47:34;3.87;;;2.93;;
8042;SDS011;4064;48.132;11.366;2024-02-16T07:50:00;2.37;;;2.17;;
8042;SDS011;4064;48.132;11.366;2024-02-16T07:52:26;3.90;;;2.83;;
8042;SDS011;4064;48.132;11.366;2024-02-16T07:54:52;3.43;;;2.73;;
8042;SDS011;4064;48.132;11.366;2024-02-16T07:57:17;4.17;;;2.87;;
8042;SDS011;4064;48.132;11.366;2024-02-16T07:59:43;2.93;;;2.63;;
8042;SDS011;4064;48.132;11.366;2024-02-16T08:02:09;3.50;;;2.70;;
8042;SDS011;4064;48.132;11.366;2024-02-16T08:04:40;3.47;;;2.80;;
8042;SDS011;4064;48.132;11.366;2024-02-16T08:07:06;3.37;;;2.60;;
8042;SDS011;4064;48.132;11.366;2024-02-16T08:09:33;4.27;;;2.50;;
8042;SDS011;4064;48.132;11.366;2024-02-16T08:11:58;3.10;;;2.57;;
8042;SDS011;4064;48.132;11.366;2024-02-16T08:14:25;2.63;;;2.27;;
8042;SDS011;4064;48.132;11.366;2024-02-16T08:16:50;4.70;;;2.83;;
8042;SDS011;4064;48.132;11.366;2024-02-16T08:19:16;4.00;;;2.33;;
8042;SDS011;4064;48.132;11.366;2024-02-16T08:21:42;2.83;;;2.33;;
8042;SDS011;4064;48.132;11.366;2024-02-16T08:24:07;3.03;;;2.33;;
8042;SDS011;4064;48.132;11.366;2024-02-16T08:26:33;3.87;;;3.20;;
8042;SDS011;4064;48.132;11.366;2024-02-16T08:28:59;4.77;;;2.80;;
8042;SDS011;4064;48.132;11.366;2024-02-16T08:31:24;4.00;;;3.60;;
8042;SDS011;4064;48.132;11.366;2024-02-16T08:33:50;2.87;;;2.50;;
8042;SDS011;4064;48.132;11.366;2024-02-16T08:36:16;2.53;;;2.20;;
8042;SDS011;4064;48.132;11.366;2024-02-16T08:38:41;4.27;;;2.93;;
8042;SDS011;4064;48.132;11.366;2024-02-16T08:41:07;3.47;;;2.53;;
8042;SDS011;4064;48.132;11.366;2024-02-16T08:43:33;2.50;;;2.30;;
8042;SDS011;4064;48.132;11.366;2024-02-16T08:45:59;3.80;;;2.53;;
8042;SDS011;4064;48.132;11.366;2024-02-16T08:48:24;3.80;;;2.60;;
8042;SDS011;4064;48.132;11.366;2024-02-16T08:50:50;3.10;;;2.70;;
8042;SDS011;4064;48.132;11.366;2024-02-16T08:53:16;5.80;;;2.50;;
8042;SDS011;4064;48.132;11.366;2024-02-16T08:55:42;2.50;;;2.30;;
8042;SDS011;4064;48.132;11.366;2024-02-16T08:58:08;4.30;;;2.97;;
8042;SDS011;4064;48.132;11.366;2024-02-16T09:00:34;3.70;;;3.13;;
8042;SDS011;4064;48.132;11.366;2024-02-16T09:03:00;4.60;;;2.67;;
8042;SDS011;4064;48.132;11.366;2024-02-16T09:05:28;5.27;;;2.50;;
8042;SDS011;4064;48.132;11.366;2024-02-16T09:07:54;3.17;;;2.87;;
8042;SDS011;4064;48.132;11.366;2024-02-16T09:10:20;3.80;;;2.80;;
8042;SDS011;4064;48.132;11.366;2024-02-16T09:12:45;7.17;;;3.10;;
8042;SDS011;4064;48.132;11.366;2024-02-16T09:15:11;4.10;;;3.70;;
8042;SDS011;4064;48.132;11.366;2024-02-16T09:17:37;3.53;;;3.23;;
8042;SDS011;4064;48.132;11.366;2024-02-16T09:20:03;3.93;;;3.07;;
8042;SDS011;4064;48.132;11.366;2024-02-16T09:22:33;4.57;;;3.70;;
8042;SDS011;4064;48.132;11.366;2024-02-16T09:24:58;3.87;;;3.47;;
8042;SDS011;4064;48.132;11.366;2024-02-16T09:27:25;5.97;;;3.07;;
8042;SDS011;4064;48.132;11.366;2024-02-16T09:29:51;3.97;;;2.93;;
8042;SDS011;4064;48.132;11.366;2024-02-16T09:32:17;5.53;;;2.80;;
8042;SDS011;4064;48.132;11.366;2024-02-16T09:34:43;3.77;;;2.33;;
8042;SDS011;4064;48.132;11.366;2024-02-16T09:37:10;3.10;;;1.77;;
8042;SDS011;4064;48.132;11.366;2024-02-16T09:39:37;3.83;;;2.43;;
8042;SDS011;4064;48.132;11.366;2024-02-16T09:42:04;2.13;;;1.73;;
8042;SDS011;4064;48.132;11.366;2024-02-16T09:44:29;6.17;;;2.00;;
8042;SDS011;4064;48.132;11.366;2024-02-16T09:46:56;4.07;;;2.03;;
8042;SDS011;4064;48.132;11.366;2024-02-16T09:49:26;2.03;;;1.70;;
8042;SDS011;4064;48.132;11.366;2024-02-16T09:51:51;4.93;;;2.67;;
8042;SDS011;4064;48.132;11.366;2024-02-16T09:54:20;1.77;;;1.50;;
8042;SDS011;4064;48.132;11.366;2024-02-16T09:56:47;2.40;;;1.80;;
8042;SDS011;4064;48.132;11.366;2024-02-16T09:59:13;1.83;;;1.23;;
8042;SDS011;4064;48.132;11.366;2024-02-16T10:01:38;1.80;;;1.47;;
8042;SDS011;4064;48.132;11.366;2024-02-16T10:04:07;2.10;;;1.40;;
8042;SDS011;4064;48.132;11.366;2024-02-16T10:06:33;2.40;;;1.70;;
8042;SDS011;4064;48.132;11.366;2024-02-16T10:09:10;3.10;;;2.60;;
8042;SDS011;4064;48.132;11.366;2024-02-16T10:11:36;1.80;;;1.40;;
8042;SDS011;4064;48.132;11.366;2024-02-16T10:14:04;2.27;;;1.73;;
8042;SDS011;4064;48.132;11.366;2024-02-16T10:16:30;2.53;;;1.63;;
8042;SDS011;4064;48.132;11.366;2024-02-16T10:18:56;2.43;;;1.47;;
8042;SDS011;4064;48.132;11.366;2024-02-16T10:21:32;2.60;;;1.80;;
8042;SDS011;4064;48.132;11.366;2024-02-16T10:24:02;3.03;;;1.57;;
8042;SDS011;4064;48.132;11.366;2024-02-16T10:26:33;2.00;;;1.80;;
8042;SDS011;4064;48.132;11.366;2024-02-16T10:29:03;3.87;;;1.67;;
8042;SDS011;4064;48.132;11.366;2024-02-16T10:31:29;2.10;;;1.30;;
8042;SDS011;4064;48.132;11.366;2024-02-16T10:33:57;2.23;;;1.63;;
8042;SDS011;4064;48.132;11.366;2024-02-16T10:36:25;3.83;;;1.93;;
8042;SDS011;4064;48.132;11.366;2024-02-16T10:38:53;2.73;;;1.93;;
8042;SDS011;4064;48.132;11.366;2024-02-16T10:41:22;1.60;;;1.40;;
8042;SDS011;4064;48.132;11.366;2024-02-16T10:43:56;2.10;;;1.50;;
8042;SDS011;4064;48.132;11.366;2024-02-16T10:46:22;4.33;;;1.83;;
8042;SDS011;4064;48.132;11.366;2024-02-16T10:48:49;4.03;;;1.83;;
8042;SDS011;4064;48.132;11.366;2024-02-16T10:51:16;2.93;;;1.60;;
8042;SDS011;4064;48.132;11.366;2024-02-16T10:53:45;2.30;;;1.90;;
8042;SDS011;4064;48.132;11.366;2024-02-16T10:56:12;2.20;;;2.00;;
8042;SDS011;4064;48.132;11.366;2024-02-16T10:58:38;2.20;;;1.60;;
8042;SDS011;4064;48.132;11.366;2024-02-16T11:01:14;4.50;;;1.70;;
8042;SDS011;4064;48.132;11.366;2024-02-16T11:03:40;2.00;;;1.70;;
8042;SDS011;4064;48.132;11.366;2024-02-16T11:06:15;2.80;;;1.80;;
8042;SDS011;4064;48.132;11.366;2024-02-16T11:08:42;3.90;;;1.80;;
8042;SDS011;4064;48.132;11.366;2024-02-16T11:11:08;2.90;;;1.90;;
8042;SDS011;4064;48.132;11.366;2024-02-16T11:13:36;2.13;;;1.93;;
8042;SDS011;4064;48.132;11.366;2024-02-16T11:16:08;2.00;;;1.70;;
8042;SDS011;4064;48.132;11.366;2024-02-16T11:18:38;2.77;;;2.03;;
8042;SDS011;4064;48.132;11.366;2024-02-16T11:21:11;3.10;;;1.70;;
8042;SDS011;4064;48.132;11.366;2024-02-16T11:23:40;2.07;;;1.47;;
8042;SDS011;4064;48.132;11.366;2024-02-16T11:26:08;2.40;;;2.10;;
8042;SDS011;4064;48.132;11.366;2024-02-16T11:28:40;2.93;;;2.13;;
8042;SDS011;4064;48.132;11.366;2024-02-16T11:31:06;2.53;;;1.70;;
8042;SDS011;4064;48.132;11.366;2024-02-16T11:33:33;3.30;;;1.33;;
8042;SDS011;4064;48.132;11.366;2024-02-16T11:36:00;2.13;;;1.77;;
8042;SDS011;4064;48.132;11.366;2024-02-16T11:38:27;2.37;;;1.63;;
8042;SDS011;4064;48.132;11.366;2024-02-16T11:40:56;2.73;;;1.97;;
8042;SDS011;4064;48.132;11.366;2024-02-16T11:43:24;2.60;;;2.10;;
8042;SDS011;4064;48.132;11.366;2024-02-16T11:45:50;1.93;;;1.50;;
8042;SDS011;4064;48.132;11.366;2024-02-16T11:48:22;3.07;;;1.80;;
8042;SDS011;4064;48.132;11.366;2024-02-16T11:50:49;2.23;;;1.33;;
8042;SDS011;4064;48.132;11.366;2024-02-16T11:53:23;2.50;;;2.07;;
8042;SDS011;4064;48.132;11.366;2024-02-16T11:55:49;2.50;;;1.77;;
8042;SDS011;4064;48.132;11.366;2024-02-16T11:58:18;2.50;;;1.47;;
8042;SDS011;4064;48.132;11.366;2024-02-16T12:00:45;3.40;;;1.40;;
8042;SDS011;4064;48.132;11.366;2024-02-16T12:03:17;2.40;;;1.40;;
8042;SDS011;4064;48.132;11.366;2024-02-16T12:05:57;2.80;;;1.57;;
8042;SDS011;4064;48.132;11.366;2024-02-16T12:08:24;6.37;;;2.13;;
8042;SDS011;4064;48.132;11.366;2024-02-16T12:10:57;2.30;;;1.37;;
8042;SDS011;4064;48.132;11.366;2024-02-16T12:13:22;5.17;;;1.40;;
8042;SDS011;4064;48.132;11.366;2024-02-16T12:15:49;2.10;;;1.50;;
8042;SDS011;4064;48.132;11.366;2024-02-16T12:18:27;2.23;;;1.57;;
8042;SDS011;4064;48.132;11.366;2024-02-16T12:21:04;2.37;;;1.30;;
8042;SDS011;4064;48.132;11.366;2024-02-16T12:23:31;2.40;;;1.20;;
8042;SDS011;4064;48.132;11.366;2024-02-16T12:26:01;2.93;;;1.57;;
8042;SDS011;4064;48.132;11.366;2024-02-16T12:28:28;2.27;;;1.60;;
8042;SDS011;4064;48.132;11.366;2024-02-16T12:30:57;2.30;;;1.37;;
8042;SDS011;4064;48.132;11.366;2024-02-16T12:33:23;2.53;;;1.40;;
8042;SDS011;4064;48.132;11.366;2024-02-16T12:35:49;3.13;;;1.60;;
8042;SDS011;4064;48.132;11.366;2024-02-16T12:38:15;2.47;;;1.50;;
8042;SDS011;4064;48.132;11.366;2024-02-16T12:40:47;3.10;;;1.77;;
8042;SDS011;4064;48.132;11.366;2024-02-16T12:43:13;4.47;;;1.70;;
8042;SDS011;4064;48.132;11.366;2024-02-16T12:45:39;2.20;;;1.47;;
8042;SDS011;4064;48.132;11.366;2024-02-16T12:48:06;3.87;;;1.80;;
8042;SDS011;4064;48.132;11.366;2024-02-16T12:50:32;2.40;;;1.63;;
8042;SDS011;4064;48.132;11.366;2024-02-16T12:52:58;2.63;;;1.73;;
8042;SDS011;4064;48.132;11.366;2024-02-16T12:55:24;1.97;;;1.60;;
8042;SDS011;4064;48.132;11.366;2024-02-16T12:57:50;6.40;;;2.00;;
8042;SDS011;4064;48.132;11.366;2024-02-16T13:00:16;2.73;;;1.53;;
8042;SDS011;4064;48.132;11.366;2024-02-16T13:02:42;2.83;;;1.50;;
8042;SDS011;4064;48.132;11.366;2024-02-16T13:05:08;1.70;;;1.57;;
8042;SDS011;4064;48.132;11.366;2024-02-16T13:07:35;3.13;;;1.47;;
8042;SDS011;4064;48.132;11.366;2024-02-16T13:10:03;2.73;;;1.70;;
8042;SDS011;4064;48.132;11.366;2024-02-16T13:12:29;2.00;;;1.20;;
8042;SDS011;4064;48.132;11.366;2024-02-16T13:14:54;4.60;;;1.60;;
8042;SDS011;4064;48.132;11.366;2024-02-16T13:17:20;5.13;;;1.70;;
8042;SDS011;4064;48.132;11.366;2024-02-16T13:19:45;2.10;;;1.50;;
8042;SDS011;4064;48.132;11.366;2024-02-16T13:22:11;3.50;;;1.60;;
8042;SDS011;4064;48.132;11.366;2024-02-16T13:24:36;3.17;;;1.73;;
8042;SDS011;4064;48.132;11.366;2024-02-16T13:27:02;7.73;;;2.10;;
8042;SDS011;4064;48.132;11.366;2024-02-16T13:29:29;3.60;;;1.40;;
8042;SDS011;4064;48.132;11.366;2024-02-16T13:31:54;5.23;;;1.73;;
8042;SDS011;4064;48.132;11.366;2024-02-16T13:34:20;3.50;;;1.70;;
8042;SDS011;4064;48.132;11.366;2024-02-16T13:36:45;4.20;;;1.73;;
8042;SDS011;4064;48.132;11.366;2024-02-16T13:39:11;2.60;;;1.63;;
8042;SDS011;4064;48.132;11.366;2024-02-16T13:41:39;2.60;;;1.80;;
8042;SDS011;4064;48.132;11.366;2024-02-16T13:44:04;2.87;;;1.60;;
8042;SDS011;4064;48.132;11.366;2024-02-16T13:46:30;2.40;;;1.40;;
8042;SDS011;4064;48.132;11.366;2024-02-16T13:48:56;4.13;;;1.93;;
8042;SDS011;4064;48.132;11.366;2024-02-16T13:51:22;3.13;;;2.03;;
8042;SDS011;4064;48.132;11.366;2024-02-16T13:53:48;8.73;;;3.20;;
8042;SDS011;4064;48.132;11.366;2024-02-16T13:56:13;3.03;;;1.97;;
8042;SDS011;4064;48.132;11.366;2024-02-16T13:58:39;6.43;;;2.00;;
8042;SDS011;4064;48.132;11.366;2024-02-16T14:01:04;2.57;;;1.50;;
8042;SDS011;4064;48.132;11.366;2024-02-16T14:03:31;3.60;;;2.40;;
8042;SDS011;4064;48.132;11.366;2024-02-16T14:05:57;3.63;;;2.13;;
8042;SDS011;4064;48.132;11.366;2024-02-16T14:08:24;3.30;;;1.90;;
8042;SDS011;4064;48.132;11.366;2024-02-16T14:10:49;2.77;;;1.90;;
8042;SDS011;4064;48.132;11.366;2024-02-16T14:13:15;4.97;;;2.07;;
8042;SDS011;4064;48.132;11.366;2024-02-16T14:15:41;3.33;;;2.13;;
8042;SDS011;4064;48.132;11.366;2024-02-16T14:18:07;3.17;;;2.00;;
8042;SDS011;4064;48.132;11.366;2024-02-16T14:20:34;2.80;;;2.03;;
8042;SDS011;4064;48.132;11.366;2024-02-16T14:22:59;3.30;;;2.33;;
8042;SDS011;4064;48.132;11.366;2024-02-16T14:25:27;4.77;;;2.50;;
8042;SDS011;4064;48.132;11.366;2024-02-16T14:27:53;4.60;;;2.57;;
8042;SDS011;4064;48.132;11.366;2024-02-16T14:30:20;6.33;;;4.20;;
8042;SDS011;4064;48.132;11.366;2024-02-16T14:32:45;2.70;;;2.30;;
8042;SDS011;4064;48.132;11.366;2024-02-16T14:35:11;4.10;;;1.90;;
8042;SDS011;4064;48.132;11.366;2024-02-16T14:37:37;4.43;;;2.07;;
8042;SDS011;4064;48.132;11.366;2024-02-16T14:40:03;3.63;;;2.00;;
8042;SDS011;4064;48.132;11.366;2024-02-16T14:42:31;5.73;;;2.17;;
8042;SDS011;4064;48.132;11.366;2024-02-16T14:44:57;3.83;;;2.10;;
8042;SDS011;4064;48.132;11.366;2024-02-16T14:47:22;6.40;;;2.27;;
8042;SDS011;4064;48.132;11.366;2024-02-16T14:49:48;3.90;;;1.80;;
8042;SDS011;4064;48.132;11.366;2024-02-16T14:52:14;4.47;;;2.40;;
8042;SDS011;4064;48.132;11.366;2024-02-16T14:54:39;3.00;;;2.20;;
8042;SDS011;4064;48.132;11.366;2024-02-16T14:57:05;4.93;;;2.37;;